sensor_id;sensor_type;location;lat;lon;timestamp;P1;durP1;ratioP1;P2;durP2;ratioP2
20844;SDS011;10583;49.084;8.646;2023-04-25T00:00:35;4.70;;;4.70;;
20844;SDS011;10583;49.084;8.646;2023-04-25T00:03:02;4.80;;;4.80;;
20844;SDS011;10583;49.084;8.646;2023-04-25T00:05:30;5.07;;;5.07;;
20844;SDS011;10583;49.084;8.646;2023-04-25T00:07:57;4.47;;;4.47;;
20844;SDS011;10583;49.084;8.646;2023-04-25T00:10:25;4.77;;;4.77;;
20844;SDS011;10583;49.084;8.646;2023-04-25T00:12:52;4.43;;;4.43;;
20844;SDS011;10583;49.084;8.646;2023-04-25T00:15:18;4.50;;;4.50;;
20844;SDS011;10583;49.084;8.646;2023-04-25T00:17:45;4.30;;;4.30;;
20844;SDS011;10583;49.084;8.646;2023-04-25T00:20:12;4.37;;;4.37;;
20844;SDS011;10583;49.084;8.646;2023-04-25T00:22:40;4.20;;;4.20;;
20844;SDS011;10583;49.084;8.646;2023-04-25T00:25:07;4.03;;;4.03;;
20844;SDS011;10583;49.084;8.646;2023-04-25T00:27:35;4.20;;;4.20;;
20844;SDS011;10583;49.084;8.646;2023-04-25T00:30:02;4.40;;;4.40;;
20844;SDS011;10583;49.084;8.646;2023-04-25T00:32:29;4.00;;;4.00;;
20844;SDS011;10583;49.084;8.646;2023-04-25T00:34:56;4.03;;;4.03;;
20844;SDS011;10583;49.084;8.646;2023-04-25T00:37:23;4.70;;;4.70;;
20844;SDS011;10583;49.084;8.646;2023-04-25T00:39:50;4.07;;;4.07;;
20844;SDS011;10583;49.084;8.646;2023-04-25T00:42:18;3.80;;;3.80;;
20844;SDS011;10583;49.084;8.646;2023-04-25T00:44:46;3.80;;;3.80;;
20844;SDS011;10583;49.084;8.646;2023-04-25T00:47:15;3.93;;;3.93;;
20844;SDS011;10583;49.084;8.646;2023-04-25T00:49:42;4.20;;;4.20;;
20844;SDS011;10583;49.084;8.646;2023-04-25T00:52:09;4.27;;;4.27;;
20844;SDS011;10583;49.084;8.646;2023-04-25T00:54:35;4.47;;;4.47;;
20844;SDS011;10583;49.084;8.646;2023-04-25T00:57:03;4.20;;;4.20;;
20844;SDS011;10583;49.084;8.646;2023-04-25T00:59:30;4.40;;;4.40;;
20844;SDS011;10583;49.084;8.646;2023-04-25T01:01:58;4.90;;;4.90;;
20844;SDS011;10583;49.084;8.646;2023-04-25T01:04:25;5.00;;;5.00;;
20844;SDS011;10583;49.084;8.646;2023-04-25T01:06:53;4.80;;;4.80;;
20844;SDS011;10583;49.084;8.646;2023-04-25T01:09:20;5.30;;;5.30;;
20844;SDS011;10583;49.084;8.646;2023-04-25T01:11:48;5.13;;;5.13;;
20844;SDS011;10583;49.084;8.646;2023-04-25T01:14:15;5.30;;;5.30;;
20844;SDS011;10583;49.084;8.646;2023-04-25T01:16:41;4.60;;;4.60;;
20844;SDS011;10583;49.084;8.646;2023-04-25T01:19:11;4.30;;;4.30;;
20844;SDS011;10583;49.084;8.646;2023-04-25T01:21:39;4.40;;;4.40;;
20844;SDS011;10583;49.084;8.646;2023-04-25T01:24:06;4.23;;;4.23;;
20844;SDS011;10583;49.084;8.646;2023-04-25T01:26:33;4.17;;;4.17;;
20844;SDS011;10583;49.084;8.646;2023-04-25T01:29:01;4.60;;;4.60;;
20844;SDS011;10583;49.084;8.646;2023-04-25T01:31:29;4.80;;;4.80;;
20844;SDS011;10583;49.084;8.646;2023-04-25T01:33:58;4.87;;;4.87;;
20844;SDS011;10583;49.084;8.646;2023-04-25T01:36:24;4.53;;;4.53;;
20844;SDS011;10583;49.084;8.646;2023-04-25T01:38:53;4.90;;;4.90;;
20844;SDS011;10583;49.084;8.646;2023-04-25T01:41:20;4.40;;;4.40;;
20844;SDS011;10583;49.084;8.646;2023-04-25T01:43:48;4.37;;;4.37;;
20844;SDS011;10583;49.084;8.646;2023-04-25T01:46:15;4.30;;;4.30;;
20844;SDS011;10583;49.084;8.646;2023-04-25T01:48:42;4.10;;;4.10;;
20844;SDS011;10583;49.084;8.646;2023-04-25T01:51:09;4.33;;;4.33;;
20844;SDS011;10583;49.084;8.646;2023-04-25T01:53:36;4.03;;;4.03;;
20844;SDS011;10583;49.084;8.646;2023-04-25T01:56:05;4.00;;;4.00;;
20844;SDS011;10583;49.084;8.646;2023-04-25T01:58:32;4.30;;;4.30;;
20844;SDS011;10583;49.084;8.646;2023-04-25T02:00:58;3.93;;;3.93;;
20844;SDS011;10583;49.084;8.646;2023-04-25T02:03:25;3.70;;;3.70;;
20844;SDS011;10583;49.084;8.646;2023-04-25T02:05:52;4.20;;;4.20;;
20844;SDS011;10583;49.084;8.646;2023-04-25T02:08:19;3.70;;;3.70;;
20844;SDS011;10583;49.084;8.646;2023-04-25T02:10:45;4.10;;;4.10;;
20844;SDS011;10583;49.084;8.646;2023-04-25T02:13:13;4.37;;;4.37;;
20844;SDS011;10583;49.084;8.646;2023-04-25T02:15:40;3.80;;;3.80;;
20844;SDS011;10583;49.084;8.646;2023-04-25T02:18:07;4.50;;;4.50;;
20844;SDS011;10583;49.084;8.646;2023-04-25T02:20:35;4.10;;;4.10;;
20844;SDS011;10583;49.084;8.646;2023-04-25T02:23:02;4.17;;;4.17;;
20844;SDS011;10583;49.084;8.646;2023-04-25T02:25:29;3.60;;;3.60;;
20844;SDS011;10583;49.084;8.646;2023-04-25T02:27:56;4.10;;;4.10;;
20844;SDS011;10583;49.084;8.646;2023-04-25T02:30:24;4.00;;;4.00;;
20844;SDS011;10583;49.084;8.646;2023-04-25T02:32:50;4.30;;;4.30;;
20844;SDS011;10583;49.084;8.646;2023-04-25T02:35:17;4.13;;;4.13;;
20844;SDS011;10583;49.084;8.646;2023-04-25T02:37:44;4.30;;;4.30;;
20844;SDS011;10583;49.084;8.646;2023-04-25T02:40:11;4.87;;;4.87;;
20844;SDS011;10583;49.084;8.646;2023-04-25T02:42:38;4.63;;;4.63;;
20844;SDS011;10583;49.084;8.646;2023-04-25T02:45:05;5.10;;;5.10;;
20844;SDS011;10583;49.084;8.646;2023-04-25T02:47:33;5.33;;;5.33;;
20844;SDS011;10583;49.084;8.646;2023-04-25T02:50:00;5.50;;;5.50;;
20844;SDS011;10583;49.084;8.646;2023-04-25T02:52:27;5.37;;;5.37;;
20844;SDS011;10583;49.084;8.646;2023-04-25T02:54:53;5.10;;;5.10;;
20844;SDS011;10583;49.084;8.646;2023-04-25T02:57:20;4.70;;;4.70;;
20844;SDS011;10583;49.084;8.646;2023-04-25T02:59:47;5.70;;;5.70;;
20844;SDS011;10583;49.084;8.646;2023-04-25T03:02:13;5.27;;;5.27;;
20844;SDS011;10583;49.084;8.646;2023-04-25T03:04:41;5.50;;;5.50;;
20844;SDS011;10583;49.084;8.646;2023-04-25T03:07:08;4.90;;;4.90;;
20844;SDS011;10583;49.084;8.646;2023-04-25T03:09:35;5.27;;;5.27;;
20844;SDS011;10583;49.084;8.646;2023-04-25T03:12:01;5.63;;;5.63;;
20844;SDS011;10583;49.084;8.646;2023-04-25T03:14:28;6.23;;;6.23;;
20844;SDS011;10583;49.084;8.646;2023-04-25T03:16:55;5.67;;;5.67;;
20844;SDS011;10583;49.084;8.646;2023-04-25T03:19:21;5.30;;;5.30;;
20844;SDS011;10583;49.084;8.646;2023-04-25T03:21:50;5.20;;;5.20;;
20844;SDS011;10583;49.084;8.646;2023-04-25T03:24:16;6.03;;;6.03;;
20844;SDS011;10583;49.084;8.646;2023-04-25T03:26:43;5.70;;;5.70;;
20844;SDS011;10583;49.084;8.646;2023-04-25T03:29:10;5.20;;;5.20;;
20844;SDS011;10583;49.084;8.646;2023-04-25T03:31:37;5.30;;;5.30;;
20844;SDS011;10583;49.084;8.646;2023-04-25T03:34:04;5.57;;;5.57;;
20844;SDS011;10583;49.084;8.646;2023-04-25T03:36:31;5.53;;;5.53;;
20844;SDS011;10583;49.084;8.646;2023-04-25T03:38:59;5.73;;;5.73;;
20844;SDS011;10583;49.084;8.646;2023-04-25T03:41:25;6.23;;;6.23;;
20844;SDS011;10583;49.084;8.646;2023-04-25T03:43:52;5.43;;;5.43;;
20844;SDS011;10583;49.084;8.646;2023-04-25T03:46:21;5.50;;;5.50;;
20844;SDS011;10583;49.084;8.646;2023-04-25T03:48:48;5.17;;;5.17;;
20844;SDS011;10583;49.084;8.646;2023-04-25T03:51:15;5.63;;;5.63;;
20844;SDS011;10583;49.084;8.646;2023-04-25T03:53:41;5.43;;;5.43;;
20844;SDS011;10583;49.084;8.646;2023-04-25T03:56:09;5.73;;;5.73;;
20844;SDS011;10583;49.084;8.646;2023-04-25T03:58:36;5.83;;;5.83;;
20844;SDS011;10583;49.084;8.646;2023-04-25T04:01:03;6.60;;;6.60;;
20844;SDS011;10583;49.084;8.646;2023-04-25T04:03:32;6.90;;;6.90;;
20844;SDS011;10583;49.084;8.646;2023-04-25T04:05:59;6.60;;;6.60;;
20844;SDS011;10583;49.084;8.646;2023-04-25T04:08:26;5.97;;;5.97;;
20844;SDS011;10583;49.084;8.646;2023-04-25T04:10:53;6.73;;;6.73;;
20844;SDS011;10583;49.084;8.646;2023-04-25T04:13:21;6.07;;;6.07;;
20844;SDS011;10583;49.084;8.646;2023-04-25T04:15:48;6.10;;;6.10;;
20844;SDS011;10583;49.084;8.646;2023-04-25T04:18:14;6.20;;;6.20;;
20844;SDS011;10583;49.084;8.646;2023-04-25T04:20:41;6.50;;;6.50;;
20844;SDS011;10583;49.084;8.646;2023-04-25T04:23:08;6.27;;;6.27;;
20844;SDS011;10583;49.084;8.646;2023-04-25T04:25:35;5.90;;;5.90;;
20844;SDS011;10583;49.084;8.646;2023-04-25T04:28:02;6.20;;;6.20;;
20844;SDS011;10583;49.084;8.646;2023-04-25T04:30:31;5.67;;;5.67;;
20844;SDS011;10583;49.084;8.646;2023-04-25T04:33:01;6.27;;;6.27;;
20844;SDS011;10583;49.084;8.646;2023-04-25T04:35:28;7.17;;;7.17;;
20844;SDS011;10583;49.084;8.646;2023-04-25T04:37:55;6.33;;;6.33;;
20844;SDS011;10583;49.084;8.646;2023-04-25T04:40:21;7.00;;;7.00;;
20844;SDS011;10583;49.084;8.646;2023-04-25T04:42:48;6.83;;;6.83;;
20844;SDS011;10583;49.084;8.646;2023-04-25T04:45:15;7.20;;;7.20;;
20844;SDS011;10583;49.084;8.646;2023-04-25T04:47:43;6.70;;;6.70;;
20844;SDS011;10583;49.084;8.646;2023-04-25T04:50:10;6.23;;;6.23;;
20844;SDS011;10583;49.084;8.646;2023-04-25T04:52:37;6.60;;;6.60;;
20844;SDS011;10583;49.084;8.646;2023-04-25T04:55:05;5.80;;;5.80;;
20844;SDS011;10583;49.084;8.646;2023-04-25T04:57:35;6.13;;;6.13;;
20844;SDS011;10583;49.084;8.646;2023-04-25T05:00:04;6.10;;;6.10;;
20844;SDS011;10583;49.084;8.646;2023-04-25T05:02:35;6.30;;;6.30;;
20844;SDS011;10583;49.084;8.646;2023-04-25T05:05:04;6.33;;;6.33;;
20844;SDS011;10583;49.084;8.646;2023-04-25T05:07:31;6.50;;;6.50;;
20844;SDS011;10583;49.084;8.646;2023-04-25T05:09:58;8.30;;;8.30;;
20844;SDS011;10583;49.084;8.646;2023-04-25T05:12:24;7.17;;;7.17;;
20844;SDS011;10583;49.084;8.646;2023-04-25T05:14:51;6.30;;;6.30;;
20844;SDS011;10583;49.084;8.646;2023-04-25T05:17:18;7.13;;;7.13;;
20844;SDS011;10583;49.084;8.646;2023-04-25T05:19:44;7.27;;;7.27;;
20844;SDS011;10583;49.084;8.646;2023-04-25T05:22:12;6.87;;;6.87;;
20844;SDS011;10583;49.084;8.646;2023-04-25T05:24:39;7.23;;;7.23;;
20844;SDS011;10583;49.084;8.646;2023-04-25T05:27:06;7.60;;;7.60;;
20844;SDS011;10583;49.084;8.646;2023-04-25T05:29:32;7.57;;;7.57;;
20844;SDS011;10583;49.084;8.646;2023-04-25T05:32:00;6.63;;;6.63;;
20844;SDS011;10583;49.084;8.646;2023-04-25T05:34:26;7.23;;;7.23;;
20844;SDS011;10583;49.084;8.646;2023-04-25T05:36:53;6.90;;;6.90;;
20844;SDS011;10583;49.084;8.646;2023-04-25T05:39:21;6.77;;;6.77;;
20844;SDS011;10583;49.084;8.646;2023-04-25T05:41:48;6.47;;;6.47;;
20844;SDS011;10583;49.084;8.646;2023-04-25T05:44:15;5.90;;;5.90;;
20844;SDS011;10583;49.084;8.646;2023-04-25T05:46:41;6.20;;;6.20;;
20844;SDS011;10583;49.084;8.646;2023-04-25T05:49:08;5.33;;;5.33;;
20844;SDS011;10583;49.084;8.646;2023-04-25T05:51:35;5.83;;;5.83;;
20844;SDS011;10583;49.084;8.646;2023-04-25T05:54:02;5.93;;;5.93;;
20844;SDS011;10583;49.084;8.646;2023-04-25T05:56:30;5.67;;;5.67;;
20844;SDS011;10583;49.084;8.646;2023-04-25T05:58:56;5.63;;;5.63;;
20844;SDS011;10583;49.084;8.646;2023-04-25T06:01:23;6.23;;;6.23;;
20844;SDS011;10583;49.084;8.646;2023-04-25T06:03:50;5.50;;;5.50;;
20844;SDS011;10583;49.084;8.646;2023-04-25T06:06:17;5.40;;;5.40;;
20844;SDS011;10583;49.084;8.646;2023-04-25T06:08:44;5.50;;;5.50;;
20844;SDS011;10583;49.084;8.646;2023-04-25T06:11:11;5.10;;;5.10;;
20844;SDS011;10583;49.084;8.646;2023-04-25T06:13:39;5.53;;;5.53;;
20844;SDS011;10583;49.084;8.646;2023-04-25T06:16:05;5.17;;;5.17;;
20844;SDS011;10583;49.084;8.646;2023-04-25T06:18:32;5.27;;;5.27;;
20844;SDS011;10583;49.084;8.646;2023-04-25T06:20:59;5.40;;;5.40;;
20844;SDS011;10583;49.084;8.646;2023-04-25T06:23:26;6.30;;;6.30;;
20844;SDS011;10583;49.084;8.646;2023-04-25T06:25:52;5.87;;;5.87;;
20844;SDS011;10583;49.084;8.646;2023-04-25T06:28:19;6.47;;;6.47;;
20844;SDS011;10583;49.084;8.646;2023-04-25T06:30:48;5.20;;;5.20;;
20844;SDS011;10583;49.084;8.646;2023-04-25T06:33:15;5.50;;;5.50;;
20844;SDS011;10583;49.084;8.646;2023-04-25T06:35:41;5.70;;;5.70;;
20844;SDS011;10583;49.084;8.646;2023-04-25T06:38:08;5.53;;;5.53;;
20844;SDS011;10583;49.084;8.646;2023-04-25T06:40:35;5.70;;;5.70;;
20844;SDS011;10583;49.084;8.646;2023-04-25T06:43:01;5.87;;;5.87;;
20844;SDS011;10583;49.084;8.646;2023-04-25T06:45:28;6.67;;;6.67;;
20844;SDS011;10583;49.084;8.646;2023-04-25T06:47:56;6.83;;;6.83;;
20844;SDS011;10583;49.084;8.646;2023-04-25T06:50:23;6.57;;;6.57;;
20844;SDS011;10583;49.084;8.646;2023-04-25T06:52:52;6.40;;;6.40;;
20844;SDS011;10583;49.084;8.646;2023-04-25T06:55:18;6.30;;;6.30;;
20844;SDS011;10583;49.084;8.646;2023-04-25T06:57:45;6.20;;;6.20;;
20844;SDS011;10583;49.084;8.646;2023-04-25T07:00:12;6.37;;;6.37;;
20844;SDS011;10583;49.084;8.646;2023-04-25T07:02:40;6.73;;;6.73;;
20844;SDS011;10583;49.084;8.646;2023-04-25T07:05:09;6.93;;;6.93;;
20844;SDS011;10583;49.084;8.646;2023-04-25T07:07:36;6.80;;;6.80;;
20844;SDS011;10583;49.084;8.646;2023-04-25T07:10:03;6.70;;;6.70;;
20844;SDS011;10583;49.084;8.646;2023-04-25T07:12:30;6.73;;;6.73;;
20844;SDS011;10583;49.084;8.646;2023-04-25T07:14:57;6.83;;;6.83;;
20844;SDS011;10583;49.084;8.646;2023-04-25T07:17:24;6.70;;;6.70;;
20844;SDS011;10583;49.084;8.646;2023-04-25T07:19:50;7.50;;;7.50;;
20844;SDS011;10583;49.084;8.646;2023-04-25T07:22:18;6.77;;;6.77;;
20844;SDS011;10583;49.084;8.646;2023-04-25T07:24:45;7.67;;;7.67;;
20844;SDS011;10583;49.084;8.646;2023-04-25T07:27:13;7.13;;;7.13;;
20844;SDS011;10583;49.084;8.646;2023-04-25T07:29:40;7.20;;;7.20;;
20844;SDS011;10583;49.084;8.646;2023-04-25T07:32:07;7.00;;;7.00;;
20844;SDS011;10583;49.084;8.646;2023-04-25T07:34:35;7.60;;;7.60;;
20844;SDS011;10583;49.084;8.646;2023-04-25T07:37:03;8.17;;;8.17;;
20844;SDS011;10583;49.084;8.646;2023-04-25T07:39:31;8.17;;;8.17;;
20844;SDS011;10583;49.084;8.646;2023-04-25T07:41:58;7.50;;;7.50;;
20844;SDS011;10583;49.084;8.646;2023-04-25T07:44:25;8.00;;;8.00;;
20844;SDS011;10583;49.084;8.646;2023-04-25T07:46:52;7.50;;;7.50;;
20844;SDS011;10583;49.084;8.646;2023-04-25T07:49:18;8.03;;;8.03;;
20844;SDS011;10583;49.084;8.646;2023-04-25T07:51:45;7.77;;;7.77;;
20844;SDS011;10583;49.084;8.646;2023-04-25T07:54:13;7.80;;;7.80;;
20844;SDS011;10583;49.084;8.646;2023-04-25T07:56:42;7.30;;;7.30;;
20844;SDS011;10583;49.084;8.646;2023-04-25T07:59:09;7.53;;;7.53;;
20844;SDS011;10583;49.084;8.646;2023-04-25T08:01:36;8.50;;;8.50;;
20844;SDS011;10583;49.084;8.646;2023-04-25T08:04:03;9.10;;;9.10;;
20844;SDS011;10583;49.084;8.646;2023-04-25T08:06:30;8.47;;;8.47;;
20844;SDS011;10583;49.084;8.646;2023-04-25T08:08:56;8.40;;;8.40;;
20844;SDS011;10583;49.084;8.646;2023-04-25T08:11:23;8.40;;;8.40;;
20844;SDS011;10583;49.084;8.646;2023-04-25T08:13:51;9.30;;;9.30;;
20844;SDS011;10583;49.084;8.646;2023-04-25T08:16:18;8.17;;;8.17;;
20844;SDS011;10583;49.084;8.646;2023-04-25T08:18:44;8.73;;;8.73;;
20844;SDS011;10583;49.084;8.646;2023-04-25T08:21:11;7.60;;;7.60;;
20844;SDS011;10583;49.084;8.646;2023-04-25T08:23:38;9.83;;;9.83;;
20844;SDS011;10583;49.084;8.646;2023-04-25T08:26:05;8.40;;;8.40;;
20844;SDS011;10583;49.084;8.646;2023-04-25T08:28:32;8.53;;;8.53;;
20844;SDS011;10583;49.084;8.646;2023-04-25T08:31:00;11.80;;;11.80;;
20844;SDS011;10583;49.084;8.646;2023-04-25T08:33:26;13.90;;;13.80;;
20844;SDS011;10583;49.084;8.646;2023-04-25T08:35:53;13.50;;;13.40;;
20844;SDS011;10583;49.084;8.646;2023-04-25T08:38:20;11.40;;;11.40;;
20844;SDS011;10583;49.084;8.646;2023-04-25T08:40:48;12.53;;;12.53;;
20844;SDS011;10583;49.084;8.646;2023-04-25T08:43:17;12.73;;;12.73;;
20844;SDS011;10583;49.084;8.646;2023-04-25T08:45:45;11.87;;;11.87;;
20844;SDS011;10583;49.084;8.646;2023-04-25T08:48:16;11.60;;;11.60;;
20844;SDS011;10583;49.084;8.646;2023-04-25T08:50:45;11.83;;;11.83;;
20844;SDS011;10583;49.084;8.646;2023-04-25T08:53:15;8.87;;;8.87;;
20844;SDS011;10583;49.084;8.646;2023-04-25T08:55:45;8.67;;;8.67;;
20844;SDS011;10583;49.084;8.646;2023-04-25T08:58:13;6.77;;;6.77;;
20844;SDS011;10583;49.084;8.646;2023-04-25T09:00:40;7.17;;;7.17;;
20844;SDS011;10583;49.084;8.646;2023-04-25T09:03:07;9.30;;;9.20;;
20844;SDS011;10583;49.084;8.646;2023-04-25T09:05:35;11.10;;;11.00;;
20844;SDS011;10583;49.084;8.646;2023-04-25T09:08:02;11.23;;;11.17;;
20844;SDS011;10583;49.084;8.646;2023-04-25T09:10:29;10.40;;;10.40;;
20844;SDS011;10583;49.084;8.646;2023-04-25T09:13:02;10.77;;;10.77;;
20844;SDS011;10583;49.084;8.646;2023-04-25T09:15:30;12.33;;;12.33;;
20844;SDS011;10583;49.084;8.646;2023-04-25T09:17:58;12.60;;;12.60;;
20844;SDS011;10583;49.084;8.646;2023-04-25T09:20:25;9.70;;;9.70;;
20844;SDS011;10583;49.084;8.646;2023-04-25T09:23:02;10.83;;;10.83;;
20844;SDS011;10583;49.084;8.646;2023-04-25T09:25:33;12.57;;;12.50;;
20844;SDS011;10583;49.084;8.646;2023-04-25T09:28:03;13.07;;;13.07;;
20844;SDS011;10583;49.084;8.646;2023-04-25T09:30:32;9.93;;;9.83;;
20844;SDS011;10583;49.084;8.646;2023-04-25T09:33:03;10.63;;;10.57;;
20844;SDS011;10583;49.084;8.646;2023-04-25T09:35:35;10.60;;;10.60;;
20844;SDS011;10583;49.084;8.646;2023-04-25T09:38:08;11.47;;;11.47;;
20844;SDS011;10583;49.084;8.646;2023-04-25T09:40:38;9.93;;;9.93;;
20844;SDS011;10583;49.084;8.646;2023-04-25T09:43:08;7.80;;;7.80;;
20844;SDS011;10583;49.084;8.646;2023-04-25T09:45:40;8.20;;;8.20;;
20844;SDS011;10583;49.084;8.646;2023-04-25T09:48:10;7.77;;;7.77;;
20844;SDS011;10583;49.084;8.646;2023-04-25T09:50:37;8.33;;;8.33;;
20844;SDS011;10583;49.084;8.646;2023-04-25T09:53:05;8.83;;;8.73;;
20844;SDS011;10583;49.084;8.646;2023-04-25T09:55:33;8.77;;;8.77;;
20844;SDS011;10583;49.084;8.646;2023-04-25T09:58:03;8.57;;;8.47;;
20844;SDS011;10583;49.084;8.646;2023-04-25T10:00:32;7.53;;;7.50;;
20844;SDS011;10583;49.084;8.646;2023-04-25T10:03:00;7.87;;;7.87;;
20844;SDS011;10583;49.084;8.646;2023-04-25T10:05:30;9.10;;;9.10;;
20844;SDS011;10583;49.084;8.646;2023-04-25T10:07:58;9.03;;;9.03;;
20844;SDS011;10583;49.084;8.646;2023-04-25T10:10:28;8.13;;;8.13;;
20844;SDS011;10583;49.084;8.646;2023-04-25T10:13:02;9.60;;;9.50;;
20844;SDS011;10583;49.084;8.646;2023-04-25T10:15:30;9.67;;;9.67;;
20844;SDS011;10583;49.084;8.646;2023-04-25T10:18:00;10.07;;;9.97;;
20844;SDS011;10583;49.084;8.646;2023-04-25T10:20:27;10.30;;;10.30;;
20844;SDS011;10583;49.084;8.646;2023-04-25T10:22:55;10.73;;;10.63;;
20844;SDS011;10583;49.084;8.646;2023-04-25T10:25:24;10.60;;;10.50;;
20844;SDS011;10583;49.084;8.646;2023-04-25T10:27:51;11.27;;;11.17;;
20844;SDS011;10583;49.084;8.646;2023-04-25T10:30:19;10.87;;;10.83;;
20844;SDS011;10583;49.084;8.646;2023-04-25T10:32:46;11.37;;;11.27;;
20844;SDS011;10583;49.084;8.646;2023-04-25T10:35:15;11.53;;;11.53;;
20844;SDS011;10583;49.084;8.646;2023-04-25T10:37:59;12.30;;;12.20;;
20844;SDS011;10583;49.084;8.646;2023-04-25T10:40:28;15.13;;;15.03;;
20844;SDS011;10583;49.084;8.646;2023-04-25T10:42:55;13.03;;;12.93;;
20844;SDS011;10583;49.084;8.646;2023-04-25T10:45:52;12.33;;;12.23;;
20844;SDS011;10583;49.084;8.646;2023-04-25T10:48:24;11.33;;;11.23;;
20844;SDS011;10583;49.084;8.646;2023-04-25T10:50:53;10.63;;;10.53;;
20844;SDS011;10583;49.084;8.646;2023-04-25T10:53:33;11.47;;;11.37;;
20844;SDS011;10583;49.084;8.646;2023-04-25T10:56:00;11.37;;;11.37;;
20844;SDS011;10583;49.084;8.646;2023-04-25T10:58:35;11.10;;;11.10;;
20844;SDS011;10583;49.084;8.646;2023-04-25T11:01:03;10.90;;;10.87;;
20844;SDS011;10583;49.084;8.646;2023-04-25T11:03:30;10.50;;;10.50;;
20844;SDS011;10583;49.084;8.646;2023-04-25T11:05:57;11.70;;;11.70;;
20844;SDS011;10583;49.084;8.646;2023-04-25T11:08:29;11.77;;;11.70;;
20844;SDS011;10583;49.084;8.646;2023-04-25T11:11:06;11.23;;;11.23;;
20844;SDS011;10583;49.084;8.646;2023-04-25T11:13:34;11.43;;;11.43;;
20844;SDS011;10583;49.084;8.646;2023-04-25T11:16:02;12.13;;;12.03;;
20844;SDS011;10583;49.084;8.646;2023-04-25T11:18:29;11.70;;;11.70;;
20844;SDS011;10583;49.084;8.646;2023-04-25T11:20:57;11.33;;;11.33;;
20844;SDS011;10583;49.084;8.646;2023-04-25T11:23:24;11.17;;;11.13;;
20844;SDS011;10583;49.084;8.646;2023-04-25T11:25:52;11.77;;;11.77;;
20844;SDS011;10583;49.084;8.646;2023-04-25T11:28:20;12.13;;;12.13;;
20844;SDS011;10583;49.084;8.646;2023-04-25T11:30:48;12.10;;;12.00;;
20844;SDS011;10583;49.084;8.646;2023-04-25T11:33:16;10.93;;;10.93;;
20844;SDS011;10583;49.084;8.646;2023-04-25T11:35:43;11.30;;;11.20;;
20844;SDS011;10583;49.084;8.646;2023-04-25T11:38:12;10.63;;;10.63;;
20844;SDS011;10583;49.084;8.646;2023-04-25T11:40:38;12.57;;;12.47;;
20844;SDS011;10583;49.084;8.646;2023-04-25T11:43:06;12.20;;;12.17;;
20844;SDS011;10583;49.084;8.646;2023-04-25T11:45:33;10.90;;;10.90;;
20844;SDS011;10583;49.084;8.646;2023-04-25T11:48:01;10.83;;;10.83;;
20844;SDS011;10583;49.084;8.646;2023-04-25T11:50:29;12.40;;;12.30;;
20844;SDS011;10583;49.084;8.646;2023-04-25T11:52:56;11.83;;;11.83;;
20844;SDS011;10583;49.084;8.646;2023-04-25T11:55:23;11.37;;;11.37;;
20844;SDS011;10583;49.084;8.646;2023-04-25T11:57:50;13.57;;;13.47;;
20844;SDS011;10583;49.084;8.646;2023-04-25T12:00:17;11.20;;;11.20;;
20844;SDS011;10583;49.084;8.646;2023-04-25T12:02:45;11.17;;;11.10;;
20844;SDS011;10583;49.084;8.646;2023-04-25T12:05:14;10.93;;;10.83;;
20844;SDS011;10583;49.084;8.646;2023-04-25T12:07:42;11.40;;;11.30;;
20844;SDS011;10583;49.084;8.646;2023-04-25T12:10:10;11.27;;;11.17;;
20844;SDS011;10583;49.084;8.646;2023-04-25T12:12:38;11.53;;;11.43;;
20844;SDS011;10583;49.084;8.646;2023-04-25T12:15:12;10.60;;;10.50;;
20844;SDS011;10583;49.084;8.646;2023-04-25T12:17:41;10.33;;;10.33;;
20844;SDS011;10583;49.084;8.646;2023-04-25T12:20:09;10.67;;;10.60;;
20844;SDS011;10583;49.084;8.646;2023-04-25T12:22:37;11.40;;;11.33;;
20844;SDS011;10583;49.084;8.646;2023-04-25T12:25:05;10.97;;;10.87;;
20844;SDS011;10583;49.084;8.646;2023-04-25T12:27:32;10.33;;;10.23;;
20844;SDS011;10583;49.084;8.646;2023-04-25T12:30:00;10.70;;;10.60;;
20844;SDS011;10583;49.084;8.646;2023-04-25T12:32:28;10.60;;;10.50;;
20844;SDS011;10583;49.084;8.646;2023-04-25T12:34:55;10.13;;;10.03;;
20844;SDS011;10583;49.084;8.646;2023-04-25T12:37:22;10.87;;;10.77;;
20844;SDS011;10583;49.084;8.646;2023-04-25T12:39:49;9.60;;;9.60;;
20844;SDS011;10583;49.084;8.646;2023-04-25T12:42:17;10.13;;;10.13;;
20844;SDS011;10583;49.084;8.646;2023-04-25T12:44:44;10.20;;;10.10;;
20844;SDS011;10583;49.084;8.646;2023-04-25T12:47:11;9.17;;;9.17;;
20844;SDS011;10583;49.084;8.646;2023-04-25T12:49:38;9.23;;;9.23;;
20844;SDS011;10583;49.084;8.646;2023-04-25T12:52:05;9.17;;;9.17;;
20844;SDS011;10583;49.084;8.646;2023-04-25T12:54:31;9.67;;;9.57;;
20844;SDS011;10583;49.084;8.646;2023-04-25T12:56:58;8.70;;;8.70;;
20844;SDS011;10583;49.084;8.646;2023-04-25T12:59:27;9.00;;;9.00;;
20844;SDS011;10583;49.084;8.646;2023-04-25T13:01:54;9.60;;;9.60;;
20844;SDS011;10583;49.084;8.646;2023-04-25T13:04:21;9.07;;;9.07;;
20844;SDS011;10583;49.084;8.646;2023-04-25T13:06:47;9.47;;;9.47;;
20844;SDS011;10583;49.084;8.646;2023-04-25T13:09:14;10.20;;;10.10;;
20844;SDS011;10583;49.084;8.646;2023-04-25T13:11:41;11.07;;;10.97;;
20844;SDS011;10583;49.084;8.646;2023-04-25T13:14:08;10.23;;;10.17;;
20844;SDS011;10583;49.084;8.646;2023-04-25T13:16:36;10.40;;;10.40;;
20844;SDS011;10583;49.084;8.646;2023-04-25T13:19:02;9.53;;;9.53;;
20844;SDS011;10583;49.084;8.646;2023-04-25T13:21:30;9.97;;;9.97;;
20844;SDS011;10583;49.084;8.646;2023-04-25T13:23:58;9.37;;;9.37;;
20844;SDS011;10583;49.084;8.646;2023-04-25T13:26:24;9.17;;;9.17;;
20844;SDS011;10583;49.084;8.646;2023-04-25T13:28:51;10.30;;;10.20;;
20844;SDS011;10583;49.084;8.646;2023-04-25T13:31:18;9.87;;;9.87;;
20844;SDS011;10583;49.084;8.646;2023-04-25T13:33:46;9.43;;;9.43;;
20844;SDS011;10583;49.084;8.646;2023-04-25T13:36:12;8.83;;;8.83;;
20844;SDS011;10583;49.084;8.646;2023-04-25T13:38:39;9.13;;;9.13;;
20844;SDS011;10583;49.084;8.646;2023-04-25T13:41:08;9.40;;;9.40;;
20844;SDS011;10583;49.084;8.646;2023-04-25T13:43:36;8.77;;;8.77;;
20844;SDS011;10583;49.084;8.646;2023-04-25T13:46:02;8.00;;;8.00;;
20844;SDS011;10583;49.084;8.646;2023-04-25T13:48:29;7.80;;;7.80;;
20844;SDS011;10583;49.084;8.646;2023-04-25T13:50:57;9.47;;;9.47;;
20844;SDS011;10583;49.084;8.646;2023-04-25T13:53:24;8.37;;;8.37;;
20844;SDS011;10583;49.084;8.646;2023-04-25T13:55:53;9.27;;;9.27;;
20844;SDS011;10583;49.084;8.646;2023-04-25T13:58:20;9.10;;;9.10;;
20844;SDS011;10583;49.084;8.646;2023-04-25T14:00:47;8.87;;;8.83;;
20844;SDS011;10583;49.084;8.646;2023-04-25T14:03:14;7.50;;;7.50;;
20844;SDS011;10583;49.084;8.646;2023-04-25T14:05:40;8.70;;;8.70;;
20844;SDS011;10583;49.084;8.646;2023-04-25T14:08:09;7.70;;;7.70;;
20844;SDS011;10583;49.084;8.646;2023-04-25T14:10:36;7.70;;;7.70;;
20844;SDS011;10583;49.084;8.646;2023-04-25T14:13:03;7.27;;;7.27;;
20844;SDS011;10583;49.084;8.646;2023-04-25T14:15:30;7.40;;;7.40;;
20844;SDS011;10583;49.084;8.646;2023-04-25T14:17:57;8.03;;;8.03;;
20844;SDS011;10583;49.084;8.646;2023-04-25T14:20:24;7.60;;;7.60;;
20844;SDS011;10583;49.084;8.646;2023-04-25T14:22:51;6.87;;;6.87;;
20844;SDS011;10583;49.084;8.646;2023-04-25T14:25:20;6.70;;;6.70;;
20844;SDS011;10583;49.084;8.646;2023-04-25T14:27:47;7.30;;;7.30;;
20844;SDS011;10583;49.084;8.646;2023-04-25T14:30:15;7.00;;;7.00;;
20844;SDS011;10583;49.084;8.646;2023-04-25T14:32:42;6.70;;;6.70;;
20844;SDS011;10583;49.084;8.646;2023-04-25T14:35:09;6.97;;;6.97;;
20844;SDS011;10583;49.084;8.646;2023-04-25T14:37:35;6.90;;;6.90;;
20844;SDS011;10583;49.084;8.646;2023-04-25T14:40:02;9.13;;;9.13;;
20844;SDS011;10583;49.084;8.646;2023-04-25T14:42:31;9.83;;;9.83;;